Terminal Aerodrome Forecast
Issued by NWS Omaha/Valley, NE

Home | Current Version | Previous Version | Text Only | Print | Product List | Glossary Off
Versions: 1 2 3 4 5 6 7 8 9 10 11 12 13 14 15 16 17 18 19 20 21 22 23 24 25 26 27 28 29 30 31 32 33 34 35 36 37 38 39 40 41

000
FTUS43 KOAX 180347 AAA
TAFOFK
TAF AMD
KOFK 180347Z 1804/1824 06007KT P6SM BKN050 OVC080
      TEMPO 1804/1808 4SM -TSRA BR BKN025CB
     FM180800 08006KT 6SM BR SCT025 BKN040
      TEMPO 1808/1812 4SM TSRA BKN015CB
     FM181200 11007KT 4SM -SHRA BR OVC015
     FM181700 15010KT P6SM SCT015 BKN100=

USA.gov is the U.S. government's official web portal to all federal, state and local government web resources and services.